CheckWX is a tool to help pilots better visualize weather data.  It is not intended as a substitute for an official pre-flight weather briefing.

14:15:40 UTC

KMIE METAR
Delaware County Regional Airport
Muncie, Indiana, USA
Current

23 mins ago

KMIE 221353Z 19010KT 10SM CLR 17/07 A3020 RMK AO2 SLP220 T01720072
Observed
Apr-22 @ 13:53 UTC
Wind
  • 190° at 10 KTS
Visibility
10 SM
Flight Rules
VFR
Cloud Levels
  • Clear skies
Temperature
17°C / 63°F
Dewpoint
C / 45°F
Humidity
52%
Altimeter
30.2" Hg
Pressure
1022.72 hPa
Previous

1 hour ago

KMIE 221253Z 18008KT 10SM CLR 15/08 A3020 RMK AO2 SLP223 T01500078
Observed
Apr-22 @ 12:53 UTC
Wind
  • 180° at 8 KTS
Visibility
10 SM
Flight Rules
VFR
Cloud Levels
  • Clear skies
Temperature
15°C / 59°F
Dewpoint
C / 46°F
Humidity
63%
Altimeter
30.2" Hg
Pressure
1022.72 hPa
Previous

2 hours ago

KMIE 221153Z 15005KT 10SM CLR 12/07 A3020 RMK AO2 SLP220 T01220072 10128 20111 53016
Observed
Apr-22 @ 11:53 UTC
Wind
  • 150° at 5 KTS
Visibility
10 SM
Flight Rules
VFR
Cloud Levels
  • Clear skies
Temperature
12°C / 54°F
Dewpoint
C / 45°F
Humidity
72%
Altimeter
30.2" Hg
Pressure
1022.72 hPa